Aviation Digital Data Service (ADDS)

Output produced by METARs form (0450 UTC 21 February 2018)
found at http://www.aviationweather.gov/adds/metars/
 
KNMM 201456Z VRB06KT 10SM OVC008 20/18 A3025 RMK AO2 SLP252 T02000183 53018 CHINO SOUTH VISNO SOUTH $
KNMM 201433Z 15005KT 10SM BKN008 OVC017 20/18 A3024 RMK AO2 CIG 007V011 T02000178 CHINO SOUTH VISNO SOUTH $
KNMM 201404Z 15006KT 10SM FEW006 BKN015 OVC020 19/18 A3024 RMK AO2 T01940178 CHINO SOUTH VISNO SOUTH $
KNMM 201356Z 14006KT 10SM FEW006 BKN013 OVC019 19/18 A3023 RMK AO2 SLP246 T01940178 CHINO SOUTH VISNO SOUTH $
KNMM 201352Z 13007KT 10SM FEW006 OVC015 19/18 A3023 RMK AO2 CHINO SOUTH VISNO SOUTH $
KNMM 201330Z 14007KT 10SM OVC013 19/18 A3023 RMK AO2 T01890178 CHINO SOUTH VISNO SOUTH $
KNMM 201306Z 14004KT 10SM FEW008 OVC015 19/18 A3021 RMK AO2 T01890178 CHINO SOUTH VISNO SOUTH $
KNMM 201256Z 15004KT 10SM FEW009 BKN013 OVC018 19/18 A3021 RMK AO2 SLP239 T01890178 CHINO SOUTH VISNO SOUTH $
KNMM 201242Z 15005KT 10SM FEW008 OVC015 19/18 A3021 RMK AO2 T01890178 CHINO SOUTH VISNO SOUTH $
KNMM 201156Z 13006KT 10SM OVC016 18/17 A3020 RMK AO2 SLP233 T01830172 10206 20183 53000 CHINO SOUTH VISNO SOUTH $
KNMM 201136Z AUTO 13006KT 10SM OVC019 18/17 A3019 RMK AO2 T01830172 CHINO SOUTH VISNO SOUTH $
KNMM 201056Z AUTO 14006KT 10SM BKN021 19/17 A3019 RMK AO2 SLP231 T01890172 CHINO SOUTH VISNO SOUTH $
KNMM 201039Z AUTO 15005KT 10SM FEW015 BKN021 18/17 A3019 RMK AO2 T01830172 CHINO SOUTH VISNO SOUTH $
KNMM 200956Z AUTO 13004KT 10SM OVC016 19/18 A3019 RMK AO2 SLP230 T01890178 CHINO SOUTH VISNO SOUTH $
KNMM 200947Z AUTO 14004KT 10SM BKN016 OVC020 19/18 A3019 RMK AO2 T01890178 CHINO SOUTH VISNO SOUTH $
KNMM 200934Z AUTO 14004KT 10SM BKN014 OVC020 19/18 A3019 RMK AO2 T01890178 CHINO SOUTH VISNO SOUTH $
KNMM 200904Z AUTO 14004KT 10SM BKN015 OVC023 21/18 A3019 RMK AO2 T02060178 CHINO SOUTH VISNO SOUTH $
KNMM 200856Z AUTO 15004KT 10SM BKN013 OVC021 19/18 A3020 RMK AO2 SLP233 T01940178 58003 CHINO SOUTH VISNO SOUTH $
KNMM 200830Z AUTO 15004KT 10SM OVC014 20/18 A3020 RMK AO2 T02000178 CHINO SOUTH VISNO SOUTH $
KNMM 200756Z AUTO 15005KT 10SM OVC017 20/18 A3020 RMK AO2 SLP235 T02000178 CHINO SOUTH VISNO SOUTH $
KNMM 200656Z AUTO 16005KT 10SM BKN070 20/17 A3021 RMK AO2 SLP237 T02000172 CHINO SOUTH VISNO SOUTH $
KNMM 200556Z AUTO 14003KT 10SM OVC070 21/17 A3021 RMK AO2 SLP236 T02060172 10239 20206 402720122 51009 CHINO SOUTH VISNO SOUTH $
KNMM 200456Z AUTO 16003KT 10SM OVC070 21/17 A3019 RMK AO2 SLP232 T02060167 CHINO SOUTH VISNO SOUTH $
KNMM 200356Z AUTO 17003KT 10SM CLR 21/16 A3019 RMK AO2 SLP232 T02110161 CHINO SOUTH VISNO SOUTH $
KNMM 200256Z AUTO 17008G14KT 10SM SCT070 22/16 A3018 RMK AO2 SLP227 T02220161 53014 CHINO SOUTH VISNO SOUTH $
KNMM 200156Z AUTO 15007KT 10SM CLR 22/16 A3016 RMK AO2 SLP220 T02220156 CHINO SOUTH VISNO SOUTH $
KNMM 200056Z AUTO 16005KT 10SM CLR 23/16 A3015 RMK AO2 SLP217 T02280156 CHINO SOUTH VISNO SOUTH $
KNMM 192356Z AUTO 18007KT 10SM CLR 24/16 A3014 RMK AO2 SLP214 T02390161 10272 20239 53005 CHINO SOUTH VISNO SOUTH $
KNMM 192256Z AUTO 17007G19KT 10SM CLR 26/16 A3013 RMK AO2 SLP210 T02610156 CHINO SOUTH VISNO SOUTH $
KNMM 192156Z AUTO 19008KT 150V230 10SM FEW047 SCT075 27/16 A3012 RMK AO2 SLP206 T02720161 CHINO SOUTH VISNO SOUTH $
KNMM 192056Z AUTO 18010G19KT 140V210 10SM FEW044 SCT080 27/16 A3012 RMK AO2 SLP209 T02670161 56021 CHINO SOUTH VISNO SOUTH $
KNMM 191956Z AUTO 18010G17KT 10SM BKN050 BKN065 BKN075 26/17 A3013 RMK AO2 SLP212 T02560167 CHINO SOUTH VISNO SOUTH $
KNMM 191856Z AUTO 15011G17KT 10SM FEW030 SCT035 BKN043 26/18 A3015 RMK AO2 SLP218 T02560178 CHINO SOUTH VISNO SOUTH $
KNMM 191756Z AUTO VRB05KT 10SM SCT024 BKN035 OVC060 24/18 A3019 RMK AO2 SLP230 T02390178 10244 20161 58013 CHINO SOUTH VISNO SOUTH $
KNMM 191743Z AUTO 16008G16KT 10SM FEW020 BKN026 BKN033 23/18 A3020 RMK AO2 T02330183 CHINO SOUTH VISNO SOUTH $
KNMM 191718Z AUTO 13010KT 10SM SCT020 SCT026 BKN044 24/18 A3020 RMK AO2 T02390183 CHINO SOUTH VISNO SOUTH $
KNMM 191656Z AUTO 16010G15KT 10SM BKN020 BKN025 OVC046 23/18 A3022 RMK AO2 SLP241 T02280178 CHINO SOUTH VISNO SOUTH $
KNMM 191617Z AUTO 15010KT 10SM SCT017 BKN025 BKN033 22/18 A3022 RMK AO2 T02220178 CHINO SOUTH VISNO SOUTH $
KNMM 191556Z AUTO 15007KT 120V190 10SM BKN015 OVC070 22/18 A3022 RMK AO2 SLP242 T02220183 CHINO SOUTH VISNO SOUTH $
KNMM 191456Z AUTO 15007KT 10SM FEW004 FEW012 BKN070 19/18 A3022 RMK AO2 SLP244 T01940183 57000 CHINO SOUTH VISNO SOUTH $
KNMM 191452Z AUTO 15005KT 10SM FEW004 SCT012 BKN070 19/18 A3022 RMK AO2 CHINO SOUTH VISNO SOUTH $
KNMM 191356Z AUTO 00000KT 4SM BR FEW002 OVC011 17/17 A3022 RMK AO2 CIG 009V014 SLP245 T01720172 CHINO SOUTH VISNO SOUTH $
KNMM 191353Z AUTO 00000KT 4SM BR SCT002 OVC011 17/17 A3022 RMK AO2 CIG 009V014 CHINO SOUTH VISNO SOUTH $
KNMM 191346Z AUTO 16003KT 4SM BR BKN002 OVC011 17/17 A3023 RMK AO2 T01720167 CHINO SOUTH VISNO SOUTH $
KNMM 191332Z AUTO 17004KT 2 1/2SM BR OVC002 17/17 A3022 RMK AO2 T01670167 CHINO SOUTH VISNO SOUTH $
KNMM 191312Z AUTO 14003KT 1 3/4SM BR BKN002 OVC014 16/16 A3021 RMK AO2 T01610156 CHINO SOUTH VISNO SOUTH $
KNMM 191246Z AUTO 11003KT 2 1/2SM BR SCT011 OVC016 16/15 A3020 RMK AO2 T01560150 CHINO SOUTH VISNO SOUTH $
KNMM 191218Z AUTO 11003KT 3SM BR FEW002 OVC016 16/15 A3020 RMK AO2 T01560150 CHINO SOUTH VISNO SOUTH $
KNMM 191156Z AUTO 10003KT 2 1/2SM BR FEW002 OVC016 15/15 A3019 RMK AO2 SLP234 70002 T01500150 10150 20122 51013 CHINO SOUTH VISNO SOUTH $
KNMM 191136Z AUTO 08003KT 1 3/4SM BR FEW009 OVC015 15/14 A3019 RMK AO2 T01500144 CHINO SOUTH VISNO SOUTH $
KNMM 191126Z AUTO 10005KT 1SM BR SCT007 OVC015 15/14 A3019 RMK AO2 T01500144 CHINO SOUTH VISNO SOUTH $
KNMM 191123Z AUTO 10005KT 3/4SM BR FEW005 BKN010 OVC014 14/14 A3019 RMK AO2 CIG 008V013 T01440144 CHINO SOUTH VISNO SOUTH $
KNMM 191116Z AUTO 09003KT 1SM BR FEW004 BKN008 OVC014 14/14 A3019 RMK AO2 CIG 005V010 T01440139 CHINO SOUTH VISNO SOUTH $
KNMM 191106Z AUTO 09003KT 1 3/4SM BR BKN004 OVC008 14/14 A3019 RMK AO2 T01440139 CHINO SOUTH VISNO SOUTH $
KNMM 191056Z AUTO 00000KT 2 1/2SM BR OVC002 15/15 A3019 RMK AO2 SLP232 T01500150 CHINO SOUTH VISNO SOUTH $
KNMM 191004Z AUTO 13005KT 5SM BR BKN003 OVC070 14/14 A3017 RMK AO2 T01440139 CHINO SOUTH VISNO SOUTH $
KNMM 190956Z AUTO 14005KT 1SM BR BKN006 BKN070 13/13 A3017 RMK AO2 SLP225 T01330128 CHINO SOUTH VISNO SOUTH $
KNMM 190917Z AUTO 11003KT 1 3/4SM BR FEW060 13/12 A3016 RMK AO2 T01280122 CHINO SOUTH VISNO SOUTH $
KNMM 190856Z AUTO 12004KT 7SM BKN060 13/13 A3016 RMK AO2 SLP221 T01330128 52002 CHINO SOUTH VISNO SOUTH $
KNMM 190756Z AUTO 14003KT 4SM BR CLR 13/13 A3015 RMK AO2 SLP221 T01330128 CHINO SOUTH VISNO SOUTH $
KNMM 190656Z AUTO 14005KT 7SM CLR 13/13 A3015 RMK AO2 SLP219 T01330128 CHINO SOUTH VISNO SOUTH $
KNMM 190556Z AUTO 14004KT 9SM CLR 13/13 A3015 RMK AO2 SLP219 T01330128 10156 20122 401720094 58009 CHINO SOUTH VISNO SOUTH $
KNMM 190456Z AUTO 00000KT 8SM CLR 13/12 A3016 RMK AO2 SLP224 T01280122 CHINO SOUTH VISNO SOUTH $
KNMM 190356Z AUTO 11005KT 8SM CLR 12/12 A3017 RMK AO2 SLP227 T01220122 CHINO SOUTH VISNO SOUTH $
KNMM 190330Z AUTO 13004KT 10SM CLR 13/12 A3017 RMK AO2 T01280122 CHINO SOUTH VISNO SOUTH $
KNMM 190256Z AUTO 10003KT 1 3/4SM BR CLR 13/12 A3018 RMK AO2 VIS 3/4V4 SLP229 T01280122 56003 CHINO SOUTH VISNO SOUTH $
KNMM 190254Z AUTO 10003KT 1 3/4SM BR CLR 13/12 A3018 RMK AO2 VIS 3/4V4 CHINO SOUTH VISNO SOUTH $
KNMM 190156Z AUTO 10004KT 9SM CLR 13/13 A3018 RMK AO2 SLP230 T01330128 CHINO SOUTH VISNO SOUTH $
KNMM 190056Z 00000KT 9SM CLR 14/13 A3018 RMK AO2 SLP230 T01440133 CHINO SOUTH VISNO SOUTH $
KNMM 182356Z 00000KT 10SM SCT100 16/13 A3018 RMK AO2 SLP231 T01560133 10172 20122 53002 CHINO SOUTH VISNO SOUTH $
KNMM 182256Z 00000KT 10SM BKN100 17/13 A3018 RMK AO2 SLP228 T01670133 CHINO SOUTH VISNO SOUTH $
KNMM 182231Z 14004KT 10SM SCT013 OVC100 17/13 A3017 RMK AO2 T01670133 CHINO SOUTH VISNO SOUTH $
KNMM 182156Z 13003KT 10SM OVC013 17/13 A3018 RMK AO2 SLP228 T01670133 CHINO SOUTH VISNO SOUTH $
KNMM 182056Z 09004KT 10SM OVC011 16/12 A3018 RMK AO2 SLP229 T01560122 56023 CHINO SOUTH VISNO SOUTH $
KNMM 182044Z 10004KT 10SM OVC010 16/12 A3018 RMK AO2 T01560122 CHINO SOUTH VISNO SOUTH $
KNMM 182003Z 14003KT 10SM OVC007 14/12 A3019 RMK AO2 T01390117 CHINO SOUTH VISNO SOUTH $
KNMM 181956Z AUTO 08003KT 10SM OVC007 14/12 A3019 RMK AO2 SLP234 T01390117 CHINO SOUTH VISNO SOUTH $
KNMM 181856Z AUTO 12005KT 10SM OVC006 13/12 A3021 RMK AO2 SLP242 T01280117 CHINO SOUTH VISNO SOUTH $
KNMM 181756Z AUTO 13003KT 10SM OVC006 12/11 A3025 RMK AO2 RAE08 SLP253 P0000 60002 T01220106 10122 20100 58009 CHINO SOUTH VISNO SOUTH $
KNMM 181656Z AUTO 12008KT 7SM -RA OVC007 12/11 A3026 RMK AO2 RAB49 SLP257 P0001 T01170106 CHINO SOUTH VISNO SOUTH $
KNMM 181556Z AUTO 09005KT 10SM OVC006 11/10 A3027 RMK AO2 RAE20 SLP262 P0001 T01110100 CHINO SOUTH VISNO SOUTH $
KNMM 181456Z AUTO 06003KT 8SM -RA OVC005 11/09 A3027 RMK AO2 RAB43 SLP262 P0000 60000 T01060094 53013 CHINO SOUTH VISNO SOUTH $
KNMM 181420Z AUTO 05006KT 10SM OVC005 11/09 A3027 RMK AO2 T01060089 CHINO SOUTH VISNO SOUTH $
KNMM 181356Z AUTO 08005KT 10SM OVC004 10/09 A3026 RMK AO2 SLP258 T01000089 CHINO SOUTH VISNO SOUTH $
KNMM 181256Z AUTO 06004KT 10SM OVC004 10/09 A3024 RMK AO2 SLP251 T01000089 CHINO SOUTH VISNO SOUTH $
KNMM 181056Z AUTO 03006KT 10SM OVC004 09/09 A3022 RMK AO2 RAB40E53 SLP244 P0000 T00940089 CHINO SOUTH VISNO SOUTH $
KNMM 181022Z AUTO 03007KT 10SM OVC004 09/09 A3023 RMK AO2 T00940089 CHINO SOUTH VISNO SOUTH $
KNMM 180956Z AUTO 03005KT 10SM OVC005 09/09 A3022 RMK AO2 SLP244 T00940089 CHINO SOUTH VISNO SOUTH $
KNMM 180856Z AUTO 36005KT 10SM OVC006 10/09 A3022 RMK AO2 SLP241 60002 T01000089 51001 CHINO SOUTH VISNO SOUTH $
KNMM 180756Z AUTO 01006KT 10SM OVC006 10/09 A3021 RMK AO2 RAE0658 SLP240 P0000 T01000089 CHINO SOUTH VISNO SOUTH $
KNMM 180708Z AUTO 36006KT 10SM OVC005 11/09 A3022 RMK AO2 RAE0658 P0000 T01060094 CHINO SOUTH VISNO SOUTH $
KNMM 180656Z AUTO 01006KT 10SM -RA OVC004 11/09 A3022 RMK AO2 RAE30B44 SLP241 P0002 T01060094 CHINO SOUTH VISNO SOUTH $
KNMM 180556Z AUTO 36008KT 6SM -RA BR OVC005 11/10 A3021 RMK AO2 RAB02 SLP240 P0002 60009 T01110100 10222 20111 402670111 51004 CHINO SOUTH VISNO SOUTH $
KNMM 180552Z AUTO 35008KT 7SM -RA OVC005 11/10 A3021 RMK AO2 RAB02 P0002 CHINO SOUTH VISNO SOUTH $
KNMM 180518Z AUTO 35009KT 4SM -RA BR OVC004 12/11 A3020 RMK AO2 RAB02 P0001 T01170111 CHINO SOUTH VISNO SOUTH $
KNMM 180456Z AUTO 36006KT 10SM OVC006 12/11 A3020 RMK AO2 CIG 004V010 SLP237 T01220111 CHINO SOUTH VISNO SOUTH $